createdAt,value
2022-08-19T00:02:06.651Z,20.76
2022-08-19T00:04:38.722Z,20.75
2022-08-19T00:07:10.821Z,20.71
2022-08-19T00:09:42.848Z,20.72
2022-08-19T00:12:16.113Z,20.72
2022-08-19T00:14:48.136Z,20.77
2022-08-19T00:17:20.148Z,20.82
2022-08-19T00:19:52.272Z,20.78
2022-08-19T00:22:24.315Z,20.75
2022-08-19T00:24:56.271Z,20.77
2022-08-19T00:27:29.405Z,20.78
2022-08-19T00:30:03.818Z,20.82
2022-08-19T00:32:35.791Z,20.77
2022-08-19T00:35:08.821Z,20.77
2022-08-19T00:37:44.263Z,20.82
2022-08-19T00:40:17.511Z,20.84
2022-08-19T00:42:49.658Z,20.88
2022-08-19T00:45:25.253Z,20.85
2022-08-19T00:47:57.378Z,20.83
2022-08-19T00:50:29.382Z,20.86
2022-08-19T00:53:05.292Z,20.86
2022-08-19T00:55:38.872Z,20.92
2022-08-19T00:58:18.624Z,20.95
2022-08-19T01:00:50.597Z,20.99
2022-08-19T01:03:23.883Z,21.03
2022-08-19T01:05:56.880Z,21.08
2022-08-19T01:08:29.182Z,21.07
2022-08-19T01:11:01.924Z,21.03
2022-08-19T01:13:48.951Z,20.94
2022-08-19T01:16:25.330Z,20.84
2022-08-19T01:19:00.381Z,20.84
2022-08-19T01:21:45.056Z,20.86
2022-08-19T01:24:17.081Z,20.82
2022-08-19T01:26:49.409Z,20.84
2022-08-19T01:29:21.465Z,20.84
2022-08-19T01:31:56.120Z,20.87
2022-08-19T01:34:28.187Z,20.88
2022-08-19T01:37:00.131Z,20.91
2022-08-19T01:39:32.112Z,20.94
2022-08-19T01:42:05.373Z,20.97
2022-08-19T01:44:38.766Z,21.00
2022-08-19T01:47:10.868Z,20.97
2022-08-19T01:49:42.896Z,20.97
2022-08-19T01:52:14.861Z,20.94
2022-08-19T01:54:46.831Z,20.93
2022-08-19T01:57:18.767Z,20.94
2022-08-19T01:59:51.389Z,20.88
2022-08-19T02:02:23.465Z,20.88
2022-08-19T02:04:55.876Z,20.81
2022-08-19T02:07:30.777Z,20.81
2022-08-19T02:10:10.520Z,20.88
2022-08-19T02:12:45.276Z,20.85
2022-08-19T02:15:20.478Z,20.89
2022-08-19T02:17:52.847Z,20.82
2022-08-19T02:20:25.083Z,20.83
2022-08-19T02:22:57.112Z,20.77
2022-08-19T02:25:29.414Z,20.70
2022-08-19T02:28:01.442Z,20.68
2022-08-19T02:30:33.803Z,20.66
2022-08-19T02:33:06.379Z,20.63
2022-08-19T02:35:38.363Z,20.60
2022-08-19T02:38:28.711Z,20.63
2022-08-19T02:41:03.281Z,20.58
2022-08-19T02:43:39.639Z,20.60
2022-08-19T02:46:29.820Z,20.64
2022-08-19T02:49:06.383Z,20.58
2022-08-19T02:51:43.538Z,20.56
2022-08-19T02:54:16.567Z,20.48
2022-08-19T02:56:48.546Z,20.42
2022-08-19T02:59:21.171Z,20.40
2022-08-19T03:01:55.152Z,20.43
2022-08-19T03:04:27.372Z,20.46
2022-08-19T03:07:07.136Z,20.37
2022-08-19T03:09:43.878Z,20.38
2022-08-19T03:12:15.839Z,20.42
2022-08-19T03:14:47.837Z,20.46
2022-08-19T03:17:20.381Z,20.43
2022-08-19T03:19:52.321Z,20.40
2022-08-19T03:22:24.344Z,20.40
2022-08-19T03:24:56.306Z,20.36
2022-08-19T03:27:34.177Z,20.35
2022-08-19T03:30:07.970Z,20.38
2022-08-19T03:32:45.477Z,20.44
2022-08-19T03:35:17.927Z,20.47
2022-08-19T03:37:49.985Z,20.52
2022-08-19T03:40:21.975Z,20.51
2022-08-19T03:42:53.953Z,20.50
2022-08-19T03:45:28.559Z,20.50
2022-08-19T03:48:01.607Z,20.48
2022-08-19T03:50:33.545Z,20.43
2022-08-19T03:53:05.566Z,20.44
2022-08-19T03:55:42.780Z,20.43
2022-08-19T03:58:14.748Z,20.44
2022-08-19T04:00:46.736Z,20.41
2022-08-19T04:03:19.807Z,20.35
2022-08-19T04:05:51.994Z,20.35
2022-08-19T04:08:24.121Z,20.36
2022-08-19T04:10:56.136Z,20.39
2022-08-19T04:13:28.653Z,20.39
2022-08-19T04:16:00.657Z,20.40
2022-08-19T04:18:37.556Z,20.41
2022-08-19T04:21:21.032Z,20.39
2022-08-19T04:23:54.301Z,20.34
2022-08-19T04:26:33.520Z,20.36
2022-08-19T04:29:13.003Z,20.28
2022-08-19T04:31:46.468Z,20.23
2022-08-19T04:34:23.318Z,20.20
2022-08-19T04:36:57.499Z,20.18
2022-08-19T04:39:50.270Z,20.15
2022-08-19T04:42:40.276Z,20.07
2022-08-19T04:45:15.643Z,20.03
2022-08-19T04:47:58.651Z,20.01
2022-08-19T04:50:43.997Z,20.04
2022-08-19T04:53:16.297Z,19.97
2022-08-19T04:55:48.247Z,19.90
2022-08-19T04:58:20.236Z,19.85
2022-08-19T05:00:52.904Z,19.78
2022-08-19T05:03:28.771Z,19.75
2022-08-19T05:06:08.504Z,19.63
2022-08-19T05:08:44.035Z,19.62
2022-08-19T05:11:27.347Z,19.57
2022-08-19T05:13:59.315Z,19.56
2022-08-19T05:16:31.277Z,19.56
2022-08-19T05:19:22.094Z,19.52
2022-08-19T05:22:13.248Z,19.50
2022-08-19T05:25:09.207Z,19.55
2022-08-19T05:27:38.050Z,19.50
2022-08-19T05:30:12.175Z,19.51
2022-08-19T05:32:44.585Z,19.50
2022-08-19T05:35:16.548Z,19.45
2022-08-19T05:37:48.500Z,19.45
2022-08-19T05:40:25.018Z,19.47
2022-08-19T05:42:58.794Z,19.56
2022-08-19T05:45:30.841Z,19.61
2022-08-19T05:48:02.953Z,19.65
2022-08-19T05:50:37.568Z,19.63
2022-08-19T05:53:10.046Z,19.58
2022-08-19T05:55:42.017Z,19.61
2022-08-19T05:58:14.290Z,19.60
2022-08-19T06:00:46.535Z,19.67
2022-08-19T06:03:18.519Z,19.68
2022-08-19T06:05:52.117Z,19.61
2022-08-19T06:08:34.651Z,19.63
2022-08-19T06:11:39.703Z,19.72
2022-08-19T06:14:19.608Z,19.73
2022-08-19T06:17:06.761Z,19.83
2022-08-19T06:19:40.498Z,19.88
2022-08-19T06:22:14.143Z,19.98
2022-08-19T06:24:46.151Z,19.98
2022-08-19T06:27:18.099Z,19.94
2022-08-19T06:29:50.596Z,20.00
2022-08-19T06:32:22.634Z,19.97
2022-08-19T06:34:54.598Z,19.98
2022-08-19T06:37:26.596Z,20.11
2022-08-19T06:39:58.581Z,20.07
2022-08-19T06:42:31.500Z,20.11
2022-08-19T06:45:09.249Z,20.16
2022-08-19T06:47:48.067Z,20.11
2022-08-19T06:50:20.502Z,20.18
2022-08-19T06:52:53.132Z,20.26
2022-08-19T06:55:25.441Z,20.33
2022-08-19T06:57:57.896Z,20.42
2022-08-19T07:03:22.226Z,20.42
2022-08-19T07:05:54.202Z,20.48
2022-08-19T07:08:27.599Z,20.49
2022-08-19T07:11:01.737Z,20.51
2022-08-19T07:13:44.496Z,20.46
2022-08-19T07:16:21.695Z,20.46
2022-08-19T07:19:11.527Z,20.46
2022-08-19T07:21:52.015Z,20.60
2022-08-19T07:24:27.168Z,20.71
2022-08-19T07:27:13.054Z,20.89
2022-08-19T07:29:47.614Z,21.00
2022-08-19T07:32:28.501Z,21.05
2022-08-19T07:35:01.778Z,21.21
2022-08-19T07:37:33.910Z,21.35
2022-08-19T07:40:08.341Z,21.32
2022-08-19T07:42:40.425Z,21.31
2022-08-19T07:45:12.625Z,21.48
2022-08-19T07:47:49.020Z,21.75
2022-08-19T07:50:22.947Z,22.04
2022-08-19T07:52:54.929Z,22.30
2022-08-19T07:55:42.086Z,22.78
2022-08-19T07:58:19.393Z,23.35
2022-08-19T08:00:52.468Z,23.94
2022-08-19T08:03:44.705Z,24.20
2022-08-19T08:06:36.084Z,24.31
2022-08-19T08:09:12.628Z,24.81
2022-08-19T08:11:53.851Z,25.22
2022-08-19T08:14:37.930Z,25.96
2022-08-19T08:17:17.452Z,26.01
2022-08-19T08:20:10.273Z,25.93
2022-08-19T08:23:05.546Z,25.74
2022-08-19T08:25:38.347Z,25.42
2022-08-19T08:28:17.372Z,25.28
2022-08-19T08:30:50.937Z,25.06
2022-08-19T08:33:33.816Z,24.83
2022-08-19T08:36:07.347Z,24.95
2022-08-19T08:38:40.905Z,24.85
2022-08-19T08:41:31.909Z,25.12
2022-08-19T08:44:08.525Z,25.37
2022-08-19T08:47:00.312Z,25.92
2022-08-19T08:49:51.817Z,26.43
2022-08-19T08:52:33.351Z,26.80
2022-08-19T08:55:11.631Z,26.95
2022-08-19T08:57:49.884Z,27.29
2022-08-19T09:00:33.122Z,28.17
2022-08-19T09:03:12.772Z,29.25
2022-08-19T09:05:55.517Z,29.91
2022-08-19T09:08:37.004Z,30.41
2022-08-19T09:11:16.929Z,30.61
2022-08-19T09:14:40.821Z,31.09
2022-08-19T09:17:11.252Z,31.07
2022-08-19T09:20:17.523Z,30.82
2022-08-19T09:22:52.794Z,30.43
2022-08-19T09:25:26.964Z,30.25
2022-08-19T09:28:05.505Z,30.12
2022-08-19T09:30:42.538Z,30.02
2022-08-19T09:33:14.727Z,29.74
2022-08-19T09:35:49.749Z,29.33
2022-08-19T09:38:25.365Z,29.09
2022-08-19T09:40:57.332Z,28.97
2022-08-19T09:43:33.253Z,28.77
2022-08-19T09:46:10.063Z,28.63
2022-08-19T09:48:43.343Z,28.68
2022-08-19T09:51:21.413Z,28.69
2022-08-19T09:53:57.838Z,28.76
2022-08-19T09:56:31.406Z,28.74
2022-08-19T09:59:05.217Z,29.31
2022-08-19T10:01:37.385Z,29.71
2022-08-19T10:04:20.118Z,29.91
2022-08-19T10:06:57.413Z,30.09
2022-08-19T10:09:34.482Z,30.45
2022-08-19T10:12:11.170Z,30.27
2022-08-19T10:14:43.594Z,30.44
2022-08-19T10:17:17.993Z,30.46
2022-08-19T10:19:55.548Z,30.34
2022-08-19T10:22:28.125Z,30.64
2022-08-19T10:25:00.107Z,31.08
2022-08-19T10:27:32.636Z,31.50
2022-08-19T10:30:10.088Z,31.90
2022-08-19T10:32:46.465Z,31.87
2022-08-19T10:35:21.125Z,32.23
2022-08-19T10:37:57.357Z,32.15
2022-08-19T10:40:30.045Z,32.40
2022-08-19T10:43:02.021Z,32.56
2022-08-19T10:45:34.007Z,33.13
2022-08-19T10:48:06.040Z,33.42
2022-08-19T10:50:56.957Z,33.70
2022-08-19T10:53:28.909Z,34.15
2022-08-19T10:56:19.311Z,34.81
2022-08-19T10:58:51.416Z,35.14
2022-08-19T11:01:23.468Z,36.09
2022-08-19T11:03:55.448Z,37.12
2022-08-19T11:06:27.718Z,37.34
2022-08-19T11:09:01.088Z,38.34
2022-08-19T11:11:33.525Z,38.92
2022-08-19T11:14:14.811Z,40.14
2022-08-19T11:16:48.326Z,40.72
2022-08-19T11:19:20.366Z,41.01
2022-08-19T11:21:54.840Z,40.73
2022-08-19T11:24:31.533Z,40.37
2022-08-19T11:27:10.158Z,39.68
2022-08-19T11:29:42.214Z,39.47
2022-08-19T11:32:14.311Z,39.32
2022-08-19T11:34:46.255Z,40.13
2022-08-19T11:37:18.301Z,40.65
2022-08-19T11:39:53.513Z,41.08
2022-08-19T11:42:44.265Z,41.44
2022-08-19T11:45:16.384Z,41.77
2022-08-19T11:47:48.777Z,40.70
2022-08-19T11:50:21.166Z,40.60
2022-08-19T11:52:59.146Z,40.95
2022-08-19T11:55:31.131Z,41.62
2022-08-19T11:58:06.973Z,42.50
2022-08-19T12:00:51.094Z,42.77
2022-08-19T12:03:23.604Z,42.41
2022-08-19T12:05:55.877Z,42.28
2022-08-19T12:08:27.917Z,41.56
2022-08-19T12:11:02.067Z,41.51
2022-08-19T12:13:34.187Z,41.32
2022-08-19T12:16:17.836Z,40.83
2022-08-19T12:18:51.944Z,40.91
2022-08-19T12:21:29.633Z,41.41
2022-08-19T12:24:04.775Z,41.58
2022-08-19T12:26:52.841Z,41.90
2022-08-19T12:29:30.512Z,41.68
2022-08-19T12:32:03.926Z,42.16
2022-08-19T12:34:37.831Z,41.26
2022-08-19T12:37:10.054Z,41.02
2022-08-19T12:39:43.597Z,40.59
2022-08-19T12:42:16.057Z,41.11
2022-08-19T12:44:48.672Z,41.75
2022-08-19T12:47:21.498Z,41.90
2022-08-19T12:49:55.771Z,41.99
2022-08-19T12:52:29.189Z,41.39
2022-08-19T12:55:01.301Z,42.02
2022-08-19T12:57:35.671Z,42.04
2022-08-19T13:00:17.808Z,42.33
2022-08-19T13:02:53.044Z,41.87
2022-08-19T13:05:29.635Z,41.02
2022-08-19T13:08:02.676Z,40.71
2022-08-19T13:10:37.053Z,39.83
2022-08-19T13:13:13.517Z,38.73
2022-08-19T13:15:46.367Z,38.58
2022-08-19T13:18:18.304Z,37.63
2022-08-19T13:20:52.648Z,37.21
2022-08-19T13:23:25.147Z,36.36
2022-08-19T13:26:02.451Z,35.25
2022-08-19T13:28:54.275Z,34.47
2022-08-19T13:31:50.200Z,34.17
2022-08-19T13:34:37.978Z,33.61
2022-08-19T13:37:10.006Z,33.34
2022-08-19T13:39:42.023Z,33.35
2022-08-19T13:42:14.953Z,33.59
2022-08-19T13:44:48.824Z,33.32
2022-08-19T13:47:20.926Z,33.05
2022-08-19T13:49:53.209Z,32.87
2022-08-19T13:52:26.104Z,33.02
2022-08-19T13:54:58.180Z,33.05
2022-08-19T13:57:30.148Z,33.64
2022-08-19T14:00:03.784Z,33.68
2022-08-19T14:02:35.977Z,33.44
2022-08-19T14:05:11.439Z,33.06
2022-08-19T14:07:43.773Z,32.86
2022-08-19T14:10:17.717Z,32.38
2022-08-19T14:12:50.310Z,32.35
2022-08-19T14:15:24.228Z,32.11
2022-08-19T14:17:57.131Z,31.81
2022-08-19T14:20:29.392Z,31.69
2022-08-19T14:23:01.934Z,32.14
2022-08-19T14:25:35.177Z,32.64
2022-08-19T14:28:08.719Z,32.53
2022-08-19T14:30:40.802Z,32.00
2022-08-19T14:33:12.865Z,31.33
2022-08-19T14:35:46.025Z,31.03
2022-08-19T14:38:22.018Z,30.92
2022-08-19T14:41:14.925Z,30.64
2022-08-19T14:43:52.450Z,30.52
2022-08-19T14:46:29.636Z,30.52
2022-08-19T14:49:09.521Z,30.46
2022-08-19T14:51:41.768Z,30.29
2022-08-19T14:54:14.459Z,30.24
2022-08-19T14:56:46.570Z,30.18
2022-08-19T14:59:19.365Z,30.13
2022-08-19T15:01:51.540Z,30.23
2022-08-19T15:04:23.518Z,30.21
2022-08-19T15:06:55.680Z,30.16
2022-08-19T15:09:27.656Z,29.97
2022-08-19T15:12:01.435Z,29.85
2022-08-19T15:14:35.310Z,29.75
2022-08-19T15:17:07.348Z,29.73
2022-08-19T15:19:39.894Z,29.59
2022-08-19T15:22:12.062Z,29.60
2022-08-19T15:24:48.022Z,29.50
2022-08-19T15:27:20.502Z,29.47
2022-08-19T15:29:56.485Z,29.53
2022-08-19T15:32:33.403Z,29.55
2022-08-19T15:35:08.111Z,29.56
2022-08-19T15:37:40.159Z,29.48
2022-08-19T15:40:12.706Z,29.22
2022-08-19T15:42:44.971Z,29.22
2022-08-19T15:45:18.752Z,29.27
2022-08-19T15:47:50.834Z,29.29
2022-08-19T15:50:23.538Z,29.17
2022-08-19T15:53:03.930Z,29.01
2022-08-19T15:55:44.329Z,28.92
2022-08-19T15:58:35.352Z,28.84
2022-08-19T16:01:27.568Z,28.79
2022-08-19T16:04:20.150Z,28.72
2022-08-19T16:06:57.222Z,28.56
2022-08-19T16:09:31.847Z,28.55
2022-08-19T16:12:06.386Z,28.49
2022-08-19T16:14:38.508Z,28.46
2022-08-19T16:17:12.680Z,28.47
2022-08-19T16:19:44.715Z,28.30
2022-08-19T16:22:17.297Z,28.23
2022-08-19T16:24:49.286Z,28.18
2022-08-19T16:27:22.582Z,28.15
2022-08-19T16:29:54.854Z,28.05
2022-08-19T16:32:27.159Z,28.02
2022-08-19T16:35:03.265Z,27.96
2022-08-19T16:37:38.176Z,27.87
2022-08-19T16:40:11.212Z,27.85
2022-08-19T16:42:43.232Z,27.82
2022-08-19T16:45:15.298Z,27.86
2022-08-19T16:47:47.359Z,27.84
2022-08-19T16:50:33.559Z,27.79
2022-08-19T16:53:21.716Z,27.80
2022-08-19T16:55:57.244Z,27.74
2022-08-19T16:58:34.165Z,27.72
2022-08-19T17:01:10.446Z,27.71
2022-08-19T17:03:42.781Z,27.69
2022-08-19T17:06:26.505Z,27.65
2022-08-19T17:09:01.248Z,27.60
2022-08-19T17:11:33.977Z,27.59
2022-08-19T17:14:06.667Z,27.57
2022-08-19T17:16:39.477Z,27.52
2022-08-19T17:19:11.672Z,27.51
2022-08-19T17:21:43.755Z,27.43
2022-08-19T17:24:15.763Z,27.33
2022-08-19T17:26:47.731Z,27.22
2022-08-19T17:29:19.805Z,27.17
2022-08-19T17:31:51.810Z,27.12
2022-08-19T17:34:23.908Z,27.13
2022-08-19T17:36:58.466Z,27.02
2022-08-19T17:39:30.491Z,26.96
2022-08-19T17:42:09.955Z,26.96
2022-08-19T17:44:42.249Z,26.87
2022-08-19T17:47:16.766Z,26.80
2022-08-19T17:49:48.929Z,26.74
2022-08-19T17:52:22.103Z,26.65
2022-08-19T17:54:54.194Z,26.56
2022-08-19T17:57:26.301Z,26.44
2022-08-19T17:59:58.716Z,26.38
2022-08-19T18:02:31.278Z,26.35
2022-08-19T18:05:05.218Z,26.35
2022-08-19T18:07:37.271Z,26.29
2022-08-19T18:10:10.247Z,26.26
2022-08-19T18:12:44.345Z,26.20
2022-08-19T18:15:17.558Z,26.15
2022-08-19T18:17:49.917Z,26.10
2022-08-19T18:20:22.263Z,26.08
2022-08-19T18:22:57.516Z,26.06
2022-08-19T18:25:50.291Z,26.02
2022-08-19T18:28:23.894Z,25.99
2022-08-19T18:30:56.392Z,25.92
2022-08-19T18:33:28.587Z,25.88
2022-08-19T18:36:01.922Z,25.85
2022-08-19T18:38:52.434Z,25.83
2022-08-19T18:41:43.228Z,25.82
2022-08-19T18:44:34.158Z,25.77
2022-08-19T18:47:24.980Z,25.71
2022-08-19T18:49:57.001Z,25.62
2022-08-19T18:52:29.171Z,25.55
2022-08-19T18:55:02.859Z,25.51
2022-08-19T18:57:35.462Z,25.46
2022-08-19T19:00:09.183Z,25.40
2022-08-19T19:02:41.372Z,25.35
2022-08-19T19:05:15.288Z,25.31
2022-08-19T19:07:47.905Z,25.26
2022-08-19T19:10:22.822Z,25.22
2022-08-19T19:12:55.101Z,25.17
2022-08-19T19:15:29.554Z,25.10
2022-08-19T19:18:01.584Z,25.05
2022-08-19T19:20:36.458Z,25.00
2022-08-19T19:23:09.257Z,24.94
2022-08-19T19:25:50.564Z,24.91
2022-08-19T19:28:28.407Z,24.83
2022-08-19T19:31:00.594Z,24.81
2022-08-19T19:33:33.258Z,24.77
2022-08-19T19:36:05.770Z,24.73
2022-08-19T19:38:37.818Z,24.69
2022-08-19T19:41:10.137Z,24.64
2022-08-19T19:43:42.874Z,24.61
2022-08-19T19:46:15.725Z,24.54
2022-08-19T19:48:48.287Z,24.52
2022-08-19T19:51:20.606Z,24.46
2022-08-19T19:53:54.180Z,24.45
2022-08-19T19:56:26.547Z,24.44
2022-08-19T19:58:58.814Z,24.42
2022-08-19T20:01:31.137Z,24.38
2022-08-19T20:04:03.615Z,24.37
2022-08-19T20:06:35.647Z,24.34
2022-08-19T20:09:08.209Z,24.28
2022-08-19T20:11:44.777Z,24.24
2022-08-19T20:14:31.802Z,24.21
2022-08-19T20:17:05.432Z,24.18
2022-08-19T20:19:37.762Z,24.16
2022-08-19T20:22:10.554Z,24.13
2022-08-19T20:24:44.898Z,24.08
2022-08-19T20:27:19.071Z,24.04
2022-08-19T20:29:54.991Z,24.00
2022-08-19T20:32:26.982Z,23.97
2022-08-19T20:34:59.933Z,23.98
2022-08-19T20:37:32.504Z,23.96
2022-08-19T20:40:06.974Z,23.96
2022-08-19T20:42:42.534Z,23.99
2022-08-19T20:45:32.159Z,23.98
2022-08-19T20:48:07.656Z,23.98
2022-08-19T20:50:40.497Z,23.97
2022-08-19T20:53:19.894Z,23.98
2022-08-19T20:55:55.461Z,23.98
2022-08-19T20:58:31.938Z,23.96
2022-08-19T21:01:06.566Z,23.96
2022-08-19T21:03:43.391Z,23.96
2022-08-19T21:06:15.564Z,23.92
2022-08-19T21:08:47.776Z,23.94
2022-08-19T21:11:21.428Z,23.95
2022-08-19T21:13:53.480Z,23.94
2022-08-19T21:16:25.570Z,23.95
2022-08-19T21:18:57.513Z,23.87
2022-08-19T21:21:29.529Z,23.81
2022-08-19T21:24:01.818Z,23.77
2022-08-19T21:26:33.818Z,23.69
2022-08-19T21:29:06.162Z,23.71
2022-08-19T21:31:38.199Z,23.74
2022-08-19T21:34:13.014Z,23.75
2022-08-19T21:36:45.053Z,23.73
2022-08-19T21:39:16.989Z,23.75
2022-08-19T21:41:49.084Z,23.75
2022-08-19T21:44:21.309Z,23.75
2022-08-19T21:46:53.354Z,23.73
2022-08-19T21:49:25.465Z,23.72
2022-08-19T21:51:58.597Z,23.70
2022-08-19T21:54:38.129Z,23.71
2022-08-19T21:57:11.107Z,23.69
2022-08-19T21:59:44.146Z,23.67
2022-08-19T22:02:21.582Z,23.66
2022-08-19T22:04:54.039Z,23.63
2022-08-19T22:07:26.243Z,23.62
2022-08-19T22:09:58.235Z,23.62
2022-08-19T22:12:35.152Z,23.61
2022-08-19T22:15:09.184Z,23.63
2022-08-19T22:17:42.287Z,23.66
2022-08-19T22:20:19.985Z,23.70
2022-08-19T22:22:57.158Z,23.71
2022-08-19T22:25:45.698Z,23.74
2022-08-19T22:28:18.745Z,23.76
2022-08-19T22:30:51.320Z,23.81
2022-08-19T22:33:24.226Z,23.78
2022-08-19T22:35:57.408Z,23.79
2022-08-19T22:38:29.436Z,23.74
2022-08-19T22:41:02.099Z,23.68
2022-08-19T22:43:34.366Z,23.64
2022-08-19T22:46:17.122Z,23.56
2022-08-19T22:49:01.306Z,23.42
2022-08-19T22:51:52.742Z,23.33
2022-08-19T22:54:25.014Z,23.24
2022-08-19T22:56:57.050Z,23.18
2022-08-19T22:59:29.680Z,23.08
2022-08-19T23:02:01.676Z,23.11
2022-08-19T23:04:34.225Z,23.07
2022-08-19T23:07:06.319Z,23.00
2022-08-19T23:09:41.530Z,22.99
2022-08-19T23:12:17.124Z,22.97
2022-08-19T23:14:49.119Z,22.94
2022-08-19T23:17:21.446Z,22.96
2022-08-19T23:19:53.484Z,22.95
2022-08-19T23:22:25.899Z,22.96
2022-08-19T23:25:14.882Z,22.94
2022-08-19T23:28:07.900Z,22.91
2022-08-19T23:30:45.497Z,22.90
2022-08-19T23:33:26.533Z,22.84
2022-08-19T23:36:20.283Z,22.77
2022-08-19T23:38:52.415Z,22.77
2022-08-19T23:41:27.200Z,22.77
2022-08-19T23:44:00.438Z,22.71
2022-08-19T23:46:32.556Z,22.71
2022-08-19T23:49:18.203Z,22.67
2022-08-19T23:51:50.192Z,22.71
2022-08-19T23:54:23.567Z,22.81
2022-08-19T23:57:15.553Z,22.85
2022-08-19T23:59:47.551Z,22.93
